createdAt,value
2022-10-31T00:00:05.188Z,76.97
2022-10-31T00:02:44.787Z,77.23
2022-10-31T00:05:15.290Z,77.33
2022-10-31T00:07:45.867Z,75.18
2022-10-31T00:10:16.350Z,74.57
2022-10-31T00:12:46.918Z,76.60
2022-10-31T00:15:17.521Z,76.87
2022-10-31T00:17:50.698Z,76.83
2022-10-31T00:20:21.094Z,83.28
2022-10-31T00:22:51.639Z,80.13
2022-10-31T00:25:22.164Z,78.19
2022-10-31T00:27:52.658Z,76.79
2022-10-31T00:30:23.842Z,75.66
2022-10-31T00:32:57.255Z,74.96
2022-10-31T00:35:28.321Z,73.92
2022-10-31T00:37:59.013Z,73.25
2022-10-31T00:40:29.422Z,72.39
2022-10-31T00:43:00.424Z,71.69
2022-10-31T00:45:31.052Z,71.10
2022-10-31T00:48:04.761Z,70.75
2022-10-31T00:50:35.139Z,70.21
2022-10-31T00:53:05.874Z,69.59
2022-10-31T00:55:36.558Z,69.27
2022-10-31T00:58:08.034Z,68.94
2022-10-31T01:00:38.631Z,68.76
2022-10-31T01:03:11.905Z,68.15
2022-10-31T01:05:45.400Z,67.89
2022-10-31T01:08:15.893Z,67.44
2022-10-31T01:10:47.366Z,67.25
2022-10-31T01:13:19.204Z,66.86
2022-10-31T01:15:49.753Z,66.67
2022-10-31T01:18:22.875Z,66.40
2022-10-31T01:21:02.988Z,66.32
2022-10-31T01:23:34.018Z,66.01
2022-10-31T01:26:06.769Z,66.14
2022-10-31T01:28:38.047Z,65.67
2022-10-31T01:31:10.442Z,65.63
2022-10-31T01:33:43.764Z,65.56
2022-10-31T01:36:19.985Z,65.59
2022-10-31T01:38:54.876Z,65.13
2022-10-31T01:41:27.005Z,65.24
2022-10-31T01:43:59.649Z,65.09
2022-10-31T01:46:33.307Z,64.99
2022-10-31T01:49:09.556Z,64.70
2022-10-31T01:51:42.816Z,64.73
2022-10-31T01:54:19.841Z,64.62
2022-10-31T01:56:54.329Z,64.39
2022-10-31T01:59:27.733Z,64.44
2022-10-31T02:01:59.521Z,64.43
2022-10-31T02:04:33.837Z,64.44
2022-10-31T02:07:09.198Z,64.41
2022-10-31T02:09:40.506Z,64.47
2022-10-31T02:12:13.373Z,64.40
2022-10-31T02:14:45.477Z,64.18
2022-10-31T02:17:16.273Z,64.21
2022-10-31T02:19:56.822Z,64.04
2022-10-31T02:22:34.315Z,63.90
2022-10-31T02:25:26.041Z,64.05
2022-10-31T02:28:20.001Z,63.82
2022-10-31T02:31:16.837Z,63.86
2022-10-31T02:33:52.717Z,63.84
2022-10-31T02:36:31.081Z,63.44
2022-10-31T02:39:13.001Z,63.53
2022-10-31T02:41:52.671Z,63.39
2022-10-31T02:44:32.924Z,63.41
2022-10-31T02:47:10.434Z,63.39
2022-10-31T02:49:44.343Z,63.46
2022-10-31T02:52:21.654Z,63.37
2022-10-31T02:54:52.608Z,63.11
2022-10-31T02:57:27.833Z,63.25
2022-10-31T03:00:02.934Z,63.19
2022-10-31T03:02:53.382Z,63.19
2022-10-31T03:05:53.726Z,63.44
2022-10-31T03:08:34.115Z,63.27
2022-10-31T03:11:06.966Z,63.27
2022-10-31T03:13:43.523Z,63.10
2022-10-31T03:16:18.453Z,63.00
2022-10-31T03:18:57.902Z,63.10
2022-10-31T03:21:31.267Z,63.16
2022-10-31T03:24:04.727Z,62.95
2022-10-31T03:26:36.410Z,63.08
2022-10-31T03:29:09.267Z,62.92
2022-10-31T03:31:50.021Z,62.84
2022-10-31T03:34:24.676Z,63.10
2022-10-31T03:37:01.191Z,62.95
2022-10-31T03:39:32.744Z,62.96
2022-10-31T03:42:09.138Z,63.24
2022-10-31T03:44:42.103Z,63.33
2022-10-31T03:47:13.055Z,63.48
2022-10-31T03:49:46.153Z,63.50
2022-10-31T03:52:24.386Z,63.80
2022-10-31T03:55:01.105Z,64.04
2022-10-31T03:57:39.679Z,64.10
2022-10-31T04:00:13.456Z,63.97
2022-10-31T04:02:56.263Z,64.70
2022-10-31T04:05:29.518Z,64.61
2022-10-31T04:08:06.794Z,64.71
2022-10-31T04:10:39.011Z,64.68
2022-10-31T04:13:12.676Z,64.55
2022-10-31T04:15:55.886Z,64.58
2022-10-31T04:18:27.368Z,64.98
2022-10-31T04:21:08.175Z,64.75
2022-10-31T04:23:40.120Z,64.89
2022-10-31T04:26:33.835Z,64.65
2022-10-31T04:29:04.387Z,64.72
2022-10-31T04:31:37.000Z,64.91
2022-10-31T04:34:08.495Z,64.85
2022-10-31T04:36:41.684Z,64.66
2022-10-31T04:39:12.208Z,64.66
2022-10-31T04:41:48.635Z,64.83
2022-10-31T04:44:19.510Z,64.77
2022-10-31T04:46:54.182Z,64.63
2022-10-31T04:49:24.664Z,64.59
2022-10-31T04:51:57.811Z,64.62
2022-10-31T04:54:28.582Z,64.54
2022-10-31T04:57:00.097Z,64.60
2022-10-31T04:59:32.866Z,64.47
2022-10-31T05:02:04.092Z,64.32
2022-10-31T05:04:48.827Z,64.65
2022-10-31T05:07:22.432Z,64.72
2022-10-31T05:09:53.370Z,64.70
2022-10-31T05:12:24.464Z,64.69
2022-10-31T05:15:22.388Z,65.03
2022-10-31T05:18:11.755Z,64.84
2022-10-31T05:21:00.871Z,64.95
2022-10-31T05:23:45.843Z,65.10
2022-10-31T05:26:19.025Z,65.01
2022-10-31T05:28:51.015Z,65.14
2022-10-31T05:31:21.561Z,65.31
2022-10-31T05:33:53.802Z,64.97
2022-10-31T05:36:56.406Z,65.09
2022-10-31T05:39:29.913Z,65.17
2022-10-31T05:42:04.805Z,65.19
2022-10-31T05:44:35.320Z,65.26
2022-10-31T05:47:29.347Z,65.24
2022-10-31T05:49:59.849Z,65.32
2022-10-31T05:52:39.581Z,65.33
2022-10-31T05:55:42.463Z,65.47
2022-10-31T05:58:16.266Z,65.21
2022-10-31T06:00:54.084Z,65.01
2022-10-31T06:03:24.654Z,64.74
2022-10-31T06:06:00.229Z,64.42
2022-10-31T06:08:40.917Z,64.11
2022-10-31T06:11:20.106Z,63.69
2022-10-31T06:14:05.986Z,63.38
2022-10-31T06:16:47.864Z,62.90
2022-10-31T06:19:41.265Z,62.66
2022-10-31T06:22:14.897Z,62.29
2022-10-31T06:24:47.215Z,61.99
2022-10-31T06:27:41.663Z,60.99
2022-10-31T06:30:18.437Z,60.29
2022-10-31T06:32:50.653Z,60.21
2022-10-31T06:35:21.579Z,60.22
2022-10-31T06:37:55.973Z,59.71
2022-10-31T06:40:42.228Z,59.04
2022-10-31T06:43:29.007Z,59.40
2022-10-31T06:46:19.933Z,59.05
2022-10-31T06:49:03.244Z,59.02
2022-10-31T06:51:54.582Z,58.42
2022-10-31T06:54:25.589Z,57.62
2022-10-31T06:56:56.848Z,57.38
2022-10-31T06:59:30.140Z,56.79
2022-10-31T07:02:20.564Z,56.12
2022-10-31T07:04:52.765Z,54.98
2022-10-31T07:07:23.598Z,53.66
2022-10-31T07:09:54.986Z,52.58
2022-10-31T07:12:40.162Z,51.21
2022-10-31T07:15:13.948Z,50.37
2022-10-31T07:17:44.457Z,49.16
2022-10-31T07:20:15.202Z,47.97
2022-10-31T07:22:50.479Z,47.95
2022-10-31T07:25:21.641Z,47.15
2022-10-31T07:28:12.589Z,46.91
2022-10-31T07:30:45.816Z,46.21
2022-10-31T07:33:16.724Z,46.00
2022-10-31T07:36:22.809Z,45.92
2022-10-31T07:38:56.058Z,45.56
2022-10-31T07:41:26.579Z,45.88
2022-10-31T07:43:57.940Z,45.33
2022-10-31T07:46:49.697Z,45.52
2022-10-31T07:49:45.854Z,45.20
2022-10-31T07:52:35.106Z,45.55
2022-10-31T07:55:23.944Z,45.47
2022-10-31T07:58:00.592Z,45.12
2022-10-31T08:00:33.419Z,45.27
2022-10-31T08:03:08.742Z,45.38
2022-10-31T08:06:00.766Z,45.15
2022-10-31T08:09:00.610Z,45.32
2022-10-31T08:11:31.167Z,45.36
2022-10-31T08:14:02.272Z,45.19
2022-10-31T08:16:32.803Z,45.00
2022-10-31T08:19:08.778Z,45.24
2022-10-31T08:21:42.252Z,45.13
2022-10-31T08:24:13.338Z,45.31
2022-10-31T08:26:44.713Z,45.46
2022-10-31T08:29:16.099Z,45.18
2022-10-31T08:31:47.338Z,45.10
2022-10-31T08:34:39.336Z,45.35
2022-10-31T08:37:41.831Z,44.93
2022-10-31T08:40:15.135Z,44.61
2022-10-31T08:42:46.042Z,44.54
2022-10-31T08:45:16.718Z,44.72
2022-10-31T08:47:47.224Z,44.00
2022-10-31T08:50:20.751Z,44.03
2022-10-31T08:53:04.889Z,43.90
2022-10-31T08:55:38.706Z,43.93
2022-10-31T08:58:16.926Z,43.86
2022-10-31T09:00:55.137Z,43.75
2022-10-31T09:03:28.164Z,43.82
2022-10-31T09:06:03.897Z,43.57
2022-10-31T09:08:36.105Z,43.50
2022-10-31T09:11:07.880Z,43.66
2022-10-31T09:13:57.288Z,43.66
2022-10-31T09:16:47.981Z,43.58
2022-10-31T09:19:25.560Z,42.95
2022-10-31T09:21:59.451Z,43.14
2022-10-31T09:24:30.599Z,43.52
2022-10-31T09:27:02.895Z,43.05
2022-10-31T09:29:33.442Z,43.26
2022-10-31T09:32:05.096Z,43.42
2022-10-31T09:34:41.502Z,43.19
2022-10-31T09:37:19.791Z,42.89
2022-10-31T09:39:50.287Z,42.91
2022-10-31T09:42:49.479Z,42.52
2022-10-31T09:45:30.553Z,42.81
2022-10-31T09:48:22.946Z,42.54
2022-10-31T09:51:13.062Z,42.40
2022-10-31T09:54:10.843Z,42.50
2022-10-31T09:56:42.141Z,42.38
2022-10-31T09:59:29.119Z,42.67
2022-10-31T10:02:10.177Z,42.28
2022-10-31T10:04:51.878Z,41.81
2022-10-31T10:07:32.795Z,42.10
2022-10-31T10:10:46.944Z,42.28
2022-10-31T10:14:01.835Z,42.36
2022-10-31T10:16:47.553Z,41.97
2022-10-31T10:19:29.777Z,41.87
2022-10-31T10:22:10.159Z,41.73
2022-10-31T10:24:58.708Z,41.63
2022-10-31T10:27:45.729Z,41.09
2022-10-31T10:30:19.880Z,40.52
2022-10-31T10:32:54.098Z,40.39
2022-10-31T10:35:29.968Z,40.25
2022-10-31T10:38:06.651Z,40.44
2022-10-31T10:40:37.160Z,39.79
2022-10-31T10:43:25.026Z,39.98
2022-10-31T10:46:19.900Z,39.23
2022-10-31T10:48:57.440Z,39.19
2022-10-31T10:54:49.844Z,37.26
2022-10-31T10:57:40.462Z,37.66
2022-10-31T11:00:23.022Z,38.26
2022-10-31T11:02:53.951Z,38.00
2022-10-31T11:05:32.176Z,37.61
2022-10-31T11:08:02.688Z,38.04
2022-10-31T11:10:33.457Z,37.71
2022-10-31T11:13:27.646Z,36.62
2022-10-31T11:16:04.309Z,36.46
2022-10-31T11:18:36.685Z,36.32
2022-10-31T11:21:08.577Z,36.09
2022-10-31T11:23:39.401Z,36.47
2022-10-31T11:26:22.924Z,36.38
2022-10-31T11:29:03.417Z,36.07
2022-10-31T11:31:38.829Z,36.50
2022-10-31T11:34:18.051Z,36.13
2022-10-31T11:36:48.918Z,36.83
2022-10-31T11:39:23.989Z,36.91
2022-10-31T11:41:56.433Z,36.43
2022-10-31T11:44:30.117Z,36.11
2022-10-31T11:47:04.911Z,35.85
2022-10-31T11:49:36.771Z,35.13
2022-10-31T11:52:10.738Z,35.79
2022-10-31T11:54:46.498Z,36.07
2022-10-31T11:57:31.481Z,36.17
2022-10-31T12:00:04.588Z,36.34
2022-10-31T12:02:45.484Z,35.76
2022-10-31T12:05:23.771Z,34.87
2022-10-31T12:07:54.423Z,35.26
2022-10-31T12:10:31.671Z,34.59
2022-10-31T12:13:12.901Z,35.11
2022-10-31T12:15:54.134Z,33.21
2022-10-31T12:18:55.157Z,33.63
2022-10-31T12:21:40.598Z,34.10
2022-10-31T12:24:22.909Z,33.87
2022-10-31T12:27:04.015Z,33.67
2022-10-31T12:29:59.998Z,34.31
2022-10-31T12:32:41.185Z,34.43
2022-10-31T12:35:37.591Z,34.17
2022-10-31T12:38:27.705Z,34.71
2022-10-31T12:41:27.819Z,34.64
2022-10-31T12:44:05.899Z,35.31
2022-10-31T12:46:56.531Z,35.05
2022-10-31T12:49:43.051Z,35.25
2022-10-31T12:52:50.950Z,35.44
2022-10-31T12:55:37.149Z,36.08
2022-10-31T12:58:13.077Z,35.85
2022-10-31T13:00:48.344Z,36.23
2022-10-31T13:03:29.188Z,36.37
2022-10-31T13:06:07.418Z,36.66
2022-10-31T13:08:47.469Z,36.46
2022-10-31T13:11:21.976Z,36.40
2022-10-31T13:14:00.515Z,36.29
2022-10-31T13:16:43.528Z,36.66
2022-10-31T13:19:20.363Z,36.52
2022-10-31T13:22:01.263Z,36.80
2022-10-31T13:24:38.157Z,36.30
2022-10-31T13:27:17.167Z,36.77
2022-10-31T13:29:57.602Z,37.03
2022-10-31T13:32:30.806Z,36.74
2022-10-31T13:35:03.750Z,36.51
2022-10-31T13:37:39.260Z,36.81
2022-10-31T13:40:21.982Z,37.12
2022-10-31T13:43:03.018Z,37.12
2022-10-31T13:45:33.744Z,37.25
2022-10-31T13:48:05.518Z,37.20
2022-10-31T13:50:37.273Z,36.84
2022-10-31T13:53:22.848Z,37.12
2022-10-31T13:56:14.156Z,36.81
2022-10-31T13:59:04.534Z,37.54
2022-10-31T14:01:36.760Z,37.29
2022-10-31T14:04:14.878Z,37.79
2022-10-31T14:06:54.091Z,38.03
2022-10-31T14:09:34.876Z,37.56
2022-10-31T14:12:11.964Z,37.77
2022-10-31T14:14:53.171Z,37.95
2022-10-31T14:17:28.024Z,38.00
2022-10-31T14:20:07.383Z,38.53
2022-10-31T14:22:42.378Z,38.42
2022-10-31T14:25:35.571Z,38.41
2022-10-31T14:28:24.068Z,38.49
2022-10-31T14:30:59.219Z,39.02
2022-10-31T14:33:31.482Z,39.20
2022-10-31T14:36:08.127Z,38.92
2022-10-31T14:38:57.138Z,39.16
2022-10-31T14:41:48.393Z,39.21
2022-10-31T14:44:48.921Z,39.69
2022-10-31T14:47:32.739Z,39.82
2022-10-31T14:50:23.518Z,39.83
2022-10-31T14:52:57.612Z,39.67
2022-10-31T14:55:30.339Z,40.07
2022-10-31T14:58:03.431Z,40.15
2022-10-31T15:00:39.207Z,40.01
2022-10-31T15:03:18.834Z,40.21
2022-10-31T15:05:54.357Z,40.77
2022-10-31T15:08:36.087Z,40.45
2022-10-31T15:11:17.379Z,40.96
2022-10-31T15:13:49.897Z,40.94
2022-10-31T15:16:25.798Z,41.13
2022-10-31T15:18:58.767Z,41.32
2022-10-31T15:21:31.879Z,41.72
2022-10-31T15:24:04.560Z,41.79
2022-10-31T15:26:41.691Z,42.23
2022-10-31T15:29:17.350Z,42.01
2022-10-31T15:31:57.715Z,42.17
2022-10-31T15:34:34.100Z,42.34
2022-10-31T15:37:05.074Z,42.87
2022-10-31T15:39:36.111Z,42.83
2022-10-31T15:42:07.069Z,43.12
2022-10-31T15:44:40.082Z,43.10
2022-10-31T15:47:20.727Z,43.03
2022-10-31T15:49:54.785Z,43.34
2022-10-31T15:52:35.129Z,43.85
2022-10-31T15:55:09.471Z,43.67
2022-10-31T15:57:45.933Z,43.91
2022-10-31T16:00:28.538Z,44.14
2022-10-31T16:03:27.065Z,44.65
2022-10-31T16:05:59.979Z,44.63
2022-10-31T16:08:37.484Z,44.96
2022-10-31T16:11:24.857Z,44.94
2022-10-31T16:14:02.168Z,45.24
2022-10-31T16:16:36.282Z,45.05
2022-10-31T16:19:20.062Z,45.15
2022-10-31T16:21:53.272Z,45.42
2022-10-31T16:24:28.840Z,45.64
2022-10-31T16:27:06.167Z,45.67
2022-10-31T16:29:46.018Z,45.90
2022-10-31T16:32:31.036Z,45.84
2022-10-31T16:35:20.417Z,46.01
2022-10-31T16:37:50.905Z,46.27
2022-10-31T16:40:21.921Z,46.38
2022-10-31T16:42:52.768Z,46.51
2022-10-31T16:45:25.116Z,46.56
2022-10-31T16:47:56.025Z,46.91
2022-10-31T16:50:30.955Z,47.00
2022-10-31T16:53:13.394Z,46.90
2022-10-31T16:55:48.510Z,47.11
2022-10-31T16:58:23.141Z,47.39
2022-10-31T17:00:54.131Z,47.54
2022-10-31T17:03:24.722Z,47.90
2022-10-31T17:05:58.561Z,47.70
2022-10-31T17:08:29.456Z,48.12
2022-10-31T17:11:01.876Z,48.17
2022-10-31T17:13:34.785Z,48.15
2022-10-31T17:16:07.938Z,48.45
2022-10-31T17:18:38.398Z,48.70
2022-10-31T17:21:20.374Z,48.94
2022-10-31T17:23:50.846Z,49.01
2022-10-31T17:26:21.781Z,49.22
2022-10-31T17:28:52.451Z,49.73
2022-10-31T17:31:26.546Z,49.48
2022-10-31T17:34:02.121Z,49.61
2022-10-31T17:36:38.401Z,50.02
2022-10-31T17:39:09.865Z,49.91
2022-10-31T17:41:40.403Z,50.14
2022-10-31T17:44:13.814Z,50.33
2022-10-31T17:46:44.351Z,50.07
2022-10-31T17:49:14.919Z,50.21
2022-10-31T17:51:48.000Z,50.58
2022-10-31T17:54:22.961Z,50.40
2022-10-31T17:56:53.367Z,50.67
2022-10-31T17:59:23.863Z,50.80
2022-10-31T18:01:54.493Z,50.94
2022-10-31T18:04:25.363Z,50.75
2022-10-31T18:06:58.477Z,51.27
2022-10-31T18:09:29.128Z,51.25
2022-10-31T18:11:59.893Z,51.23
2022-10-31T18:14:31.126Z,51.74
2022-10-31T18:17:01.614Z,51.91
2022-10-31T18:19:32.370Z,52.09
2022-10-31T18:22:05.508Z,52.04
2022-10-31T18:24:36.227Z,52.14
2022-10-31T18:27:07.036Z,52.21
2022-10-31T18:29:37.831Z,52.42
2022-10-31T18:32:09.820Z,52.68
2022-10-31T18:34:40.526Z,52.80
2022-10-31T18:37:13.649Z,53.11
2022-10-31T18:39:44.203Z,52.75
2022-10-31T18:42:14.758Z,52.95
2022-10-31T18:44:45.322Z,53.26
2022-10-31T18:47:15.869Z,53.44
2022-10-31T18:49:46.475Z,53.69
2022-10-31T18:52:19.606Z,53.60
2022-10-31T18:54:50.285Z,54.06
2022-10-31T18:57:20.805Z,53.87
2022-10-31T18:59:51.352Z,54.54
2022-10-31T19:02:21.967Z,54.21
2022-10-31T19:04:52.658Z,54.21
2022-10-31T19:07:26.088Z,54.42
2022-10-31T19:09:56.988Z,54.83
2022-10-31T19:12:27.570Z,54.78
2022-10-31T19:14:58.189Z,54.96
2022-10-31T19:17:29.082Z,55.38
2022-10-31T19:19:59.660Z,55.29
2022-10-31T19:22:34.330Z,55.35
2022-10-31T19:25:07.656Z,55.25
2022-10-31T19:27:42.505Z,55.83
2022-10-31T19:30:15.034Z,55.61
2022-10-31T19:32:45.836Z,55.63
2022-10-31T19:35:16.906Z,55.76
2022-10-31T19:37:50.102Z,55.98
2022-10-31T19:40:20.833Z,55.87
2022-10-31T19:42:51.217Z,56.22
2022-10-31T19:45:21.745Z,56.65
2022-10-31T19:47:52.276Z,56.61
2022-10-31T19:50:23.009Z,56.83
2022-10-31T19:52:56.225Z,56.94
2022-10-31T19:55:26.791Z,57.08
2022-10-31T19:58:11.989Z,57.12
2022-10-31T20:00:43.297Z,57.12
2022-10-31T20:03:17.141Z,57.27
2022-10-31T20:05:50.909Z,57.35
2022-10-31T20:08:24.718Z,57.54
2022-10-31T20:10:58.741Z,57.87
2022-10-31T20:13:29.423Z,57.87
2022-10-31T20:16:02.853Z,58.06
2022-10-31T20:18:33.862Z,58.02
2022-10-31T20:21:06.134Z,58.12
2022-10-31T20:23:39.919Z,58.14
2022-10-31T20:26:13.284Z,58.65
2022-10-31T20:28:44.224Z,58.74
2022-10-31T20:31:18.038Z,58.60
2022-10-31T20:33:48.581Z,58.75
2022-10-31T20:36:21.343Z,57.63
2022-10-31T20:38:55.404Z,56.85
2022-10-31T20:41:25.962Z,59.70
2022-10-31T20:43:56.578Z,63.04
2022-10-31T20:46:29.089Z,67.18
2022-10-31T20:48:59.687Z,69.76
2022-10-31T20:51:31.984Z,70.24
2022-10-31T20:54:06.968Z,71.11
2022-10-31T20:56:37.589Z,72.39
2022-10-31T20:59:10.122Z,74.25
2022-10-31T21:01:40.711Z,74.93
2022-10-31T21:04:12.222Z,76.07
2022-10-31T21:06:48.144Z,76.51
2022-10-31T21:09:22.403Z,76.02
2022-10-31T21:11:53.105Z,76.02
2022-10-31T21:14:24.162Z,76.64
2022-10-31T21:16:54.733Z,77.00
2022-10-31T21:19:25.262Z,76.93
2022-10-31T21:21:55.771Z,76.99
2022-10-31T21:24:29.206Z,77.42
2022-10-31T21:27:02.590Z,77.78
2022-10-31T21:29:33.425Z,78.16
2022-10-31T21:32:03.952Z,78.30
2022-10-31T21:34:34.658Z,78.36
2022-10-31T21:37:06.204Z,78.70
2022-10-31T21:39:40.332Z,79.35
2022-10-31T21:42:10.979Z,79.30
2022-10-31T21:44:41.488Z,79.52
2022-10-31T21:47:12.018Z,80.11
2022-10-31T21:49:42.493Z,81.39
2022-10-31T21:52:13.548Z,83.51
2022-10-31T21:54:44.115Z,82.09
2022-10-31T21:57:14.724Z,81.57
2022-10-31T21:59:48.701Z,81.38
2022-10-31T22:02:19.344Z,81.02
2022-10-31T22:04:51.165Z,81.34
2022-10-31T22:07:21.708Z,81.43
2022-10-31T22:09:56.306Z,81.34
2022-10-31T22:12:28.388Z,81.44
2022-10-31T22:15:00.915Z,81.51
2022-10-31T22:17:33.052Z,88.09
2022-10-31T22:20:06.186Z,84.97
2022-10-31T22:22:39.322Z,83.23
2022-10-31T22:25:14.767Z,82.05
2022-10-31T22:27:47.106Z,81.00
2022-10-31T22:30:19.299Z,80.14
2022-10-31T22:32:51.946Z,79.15
2022-10-31T22:35:24.974Z,78.16
2022-10-31T22:37:58.803Z,77.50
2022-10-31T22:40:37.043Z,76.61
2022-10-31T22:43:10.731Z,76.08
2022-10-31T22:45:43.824Z,75.47
2022-10-31T22:48:17.499Z,75.36
2022-10-31T22:50:48.991Z,74.66
2022-10-31T22:53:22.125Z,74.30
2022-10-31T22:55:57.446Z,73.84
2022-10-31T22:58:30.758Z,73.75
2022-10-31T23:01:04.332Z,73.50
2022-10-31T23:03:39.136Z,72.92
2022-10-31T23:06:17.282Z,73.04
2022-10-31T23:08:51.170Z,72.67
2022-10-31T23:11:29.163Z,72.53
2022-10-31T23:14:15.659Z,72.23
2022-10-31T23:16:49.418Z,72.69
2022-10-31T23:19:23.494Z,72.18
2022-10-31T23:22:00.541Z,71.99
2022-10-31T23:24:39.151Z,71.99
2022-10-31T23:27:17.169Z,72.07
2022-10-31T23:29:51.142Z,71.85
2022-10-31T23:32:26.453Z,72.32
2022-10-31T23:35:00.567Z,72.73
2022-10-31T23:37:37.584Z,72.58
2022-10-31T23:40:11.244Z,72.53
2022-10-31T23:42:45.616Z,71.87
2022-10-31T23:45:17.881Z,71.67
2022-10-31T23:47:52.246Z,71.57
2022-10-31T23:50:24.871Z,71.50
2022-10-31T23:52:58.554Z,71.31
2022-10-31T23:55:31.016Z,71.08
2022-10-31T23:58:06.392Z,70.95
